Country Club Plaza, Oregon
Current Conditions -  °F | °C
As of 1:54 PM on Tuesday 21 Oct 2014 (Local Time) from KEUG Reporting Station
Broken Clouds Broken Clouds  
Wind Chill: 64°   Ceiling: 4700
Heat Index: 64°   Visibility: 10mi
Dew Point: 49°   Wind: 20mph
Humidity: 58%   Direction: 180°S
Pressure: 30.01"   Gusts: NA
Location:  44.0685°N, 123.082°W
Report Text: KEUG 212054Z 18017KT 10SM FEW038 BKN047 BKN055 18/09 A3001 RMK AO2 SLP161 T01780094 58012
Loading
Personal Weather Stations






























Interactive Weather Map
Tropical Storm Tracking
New forecast layout! Learn more

10-Day Weather Forecast

Advertisements
Track Severe Weather on mobile